sensor_id;sensor_type;location;lat;lon;timestamp;pressure;altitude;pressure_sealevel;temperature;humidity
8416;BME280;4245;42.120;24.732;2022-07-09T00:00:11;98990.19;;;21.75;100.00
8416;BME280;4245;42.120;24.732;2022-07-09T00:02:38;98984.44;;;21.78;100.00
8416;BME280;4245;42.120;24.732;2022-07-09T00:05:05;98986.84;;;21.88;100.00
8416;BME280;4245;42.120;24.732;2022-07-09T00:07:32;98979.94;;;21.71;100.00
8416;BME280;4245;42.120;24.732;2022-07-09T00:09:59;98977.41;;;21.69;100.00
8416;BME280;4245;42.120;24.732;2022-07-09T00:12:26;98989.16;;;21.76;100.00
8416;BME280;4245;42.120;24.732;2022-07-09T00:14:53;98977.19;;;21.41;100.00
8416;BME280;4245;42.120;24.732;2022-07-09T00:17:21;98968.59;;;21.00;100.00
8416;BME280;4245;42.120;24.732;2022-07-09T00:19:48;98962.06;;;20.95;100.00
8416;BME280;4245;42.120;24.732;2022-07-09T00:22:15;98963.00;;;21.02;100.00
8416;BME280;4245;42.120;24.732;2022-07-09T00:24:41;98953.94;;;21.17;100.00
8416;BME280;4245;42.120;24.732;2022-07-09T00:27:08;98946.97;;;21.23;100.00
8416;BME280;4245;42.120;24.732;2022-07-09T00:29:35;98947.72;;;21.32;100.00
8416;BME280;4245;42.120;24.732;2022-07-09T00:32:02;98959.25;;;21.25;100.00
8416;BME280;4245;42.120;24.732;2022-07-09T00:34:31;98966.75;;;21.38;100.00
8416;BME280;4245;42.120;24.732;2022-07-09T00:36:59;98977.59;;;21.53;100.00
8416;BME280;4245;42.120;24.732;2022-07-09T00:39:26;98968.34;;;21.47;100.00
8416;BME280;4245;42.120;24.732;2022-07-09T00:42:01;98948.66;;;21.24;100.00
8416;BME280;4245;42.120;24.732;2022-07-09T00:44:28;98951.09;;;21.34;100.00
8416;BME280;4245;42.120;24.732;2022-07-09T00:46:55;98965.91;;;21.38;100.00
8416;BME280;4245;42.120;24.732;2022-07-09T00:49:22;98955.28;;;21.36;100.00
8416;BME280;4245;42.120;24.732;2022-07-09T00:51:51;98955.59;;;21.56;100.00
8416;BME280;4245;42.120;24.732;2022-07-09T00:54:19;98956.50;;;21.34;100.00
8416;BME280;4245;42.120;24.732;2022-07-09T00:56:46;98953.41;;;21.22;100.00
8416;BME280;4245;42.120;24.732;2022-07-09T00:59:13;98948.72;;;21.16;100.00
8416;BME280;4245;42.120;24.732;2022-07-09T01:01:40;98947.72;;;21.17;100.00
8416;BME280;4245;42.120;24.732;2022-07-09T01:04:07;98938.13;;;21.14;100.00
8416;BME280;4245;42.120;24.732;2022-07-09T01:06:34;98933.56;;;21.15;100.00
8416;BME280;4245;42.120;24.732;2022-07-09T01:09:02;98927.84;;;21.10;100.00
8416;BME280;4245;42.120;24.732;2022-07-09T01:11:30;98921.47;;;21.03;100.00
8416;BME280;4245;42.120;24.732;2022-07-09T01:13:57;98922.06;;;21.13;100.00
8416;BME280;4245;42.120;24.732;2022-07-09T01:16:30;98923.06;;;21.12;100.00
8416;BME280;4245;42.120;24.732;2022-07-09T01:18:57;98925.78;;;21.12;100.00
8416;BME280;4245;42.120;24.732;2022-07-09T01:21:25;98927.06;;;21.24;100.00
8416;BME280;4245;42.120;24.732;2022-07-09T01:23:53;98936.03;;;21.54;100.00
8416;BME280;4245;42.120;24.732;2022-07-09T01:26:20;98936.22;;;21.52;100.00
8416;BME280;4245;42.120;24.732;2022-07-09T01:28:48;98942.25;;;21.69;100.00
8416;BME280;4245;42.120;24.732;2022-07-09T01:31:15;98942.75;;;21.73;100.00
8416;BME280;4245;42.120;24.732;2022-07-09T01:33:42;98944.69;;;21.64;100.00
8416;BME280;4245;42.120;24.732;2022-07-09T01:36:10;98944.31;;;21.52;100.00
8416;BME280;4245;42.120;24.732;2022-07-09T01:38:38;98955.25;;;21.59;100.00
8416;BME280;4245;42.120;24.732;2022-07-09T01:41:05;98957.28;;;21.72;100.00
8416;BME280;4245;42.120;24.732;2022-07-09T01:43:32;98952.16;;;21.62;100.00
8416;BME280;4245;42.120;24.732;2022-07-09T01:46:00;98950.47;;;21.76;100.00
8416;BME280;4245;42.120;24.732;2022-07-09T01:48:27;98951.59;;;21.81;100.00
8416;BME280;4245;42.120;24.732;2022-07-09T01:50:54;98957.47;;;21.70;100.00
8416;BME280;4245;42.120;24.732;2022-07-09T01:53:21;98956.34;;;21.79;100.00
8416;BME280;4245;42.120;24.732;2022-07-09T01:55:49;98958.75;;;21.74;100.00
8416;BME280;4245;42.120;24.732;2022-07-09T01:58:16;98960.25;;;21.47;100.00
8416;BME280;4245;42.120;24.732;2022-07-09T02:00:44;98955.69;;;21.62;100.00
8416;BME280;4245;42.120;24.732;2022-07-09T02:03:10;98960.56;;;21.82;100.00
8416;BME280;4245;42.120;24.732;2022-07-09T02:05:37;98948.16;;;21.87;100.00
8416;BME280;4245;42.120;24.732;2022-07-09T02:08:04;98957.56;;;21.91;100.00
8416;BME280;4245;42.120;24.732;2022-07-09T02:10:32;98956.25;;;21.43;100.00
8416;BME280;4245;42.120;24.732;2022-07-09T02:13:00;98958.00;;;21.51;100.00
8416;BME280;4245;42.120;24.732;2022-07-09T02:15:27;98954.19;;;21.45;100.00
8416;BME280;4245;42.120;24.732;2022-07-09T02:17:54;98946.19;;;21.52;100.00
8416;BME280;4245;42.120;24.732;2022-07-09T02:20:21;98953.50;;;21.29;100.00
8416;BME280;4245;42.120;24.732;2022-07-09T02:22:48;98942.97;;;21.19;100.00
8416;BME280;4245;42.120;24.732;2022-07-09T02:25:15;98949.88;;;20.99;100.00
8416;BME280;4245;42.120;24.732;2022-07-09T02:27:42;98940.56;;;20.78;100.00
8416;BME280;4245;42.120;24.732;2022-07-09T02:30:10;98942.75;;;20.60;100.00
8416;BME280;4245;42.120;24.732;2022-07-09T02:32:37;98942.53;;;20.39;100.00
8416;BME280;4245;42.120;24.732;2022-07-09T02:35:06;98942.53;;;20.39;100.00
8416;BME280;4245;42.120;24.732;2022-07-09T02:37:33;98943.84;;;20.43;100.00
8416;BME280;4245;42.120;24.732;2022-07-09T02:40:00;98945.00;;;20.49;100.00
8416;BME280;4245;42.120;24.732;2022-07-09T02:42:26;98946.75;;;20.64;100.00
8416;BME280;4245;42.120;24.732;2022-07-09T02:44:53;98949.25;;;20.43;100.00
8416;BME280;4245;42.120;24.732;2022-07-09T02:47:22;98947.53;;;20.50;100.00
8416;BME280;4245;42.120;24.732;2022-07-09T02:49:48;98951.72;;;20.53;100.00
8416;BME280;4245;42.120;24.732;2022-07-09T02:52:15;98954.00;;;20.64;100.00
8416;BME280;4245;42.120;24.732;2022-07-09T02:54:42;98939.28;;;20.52;100.00
8416;BME280;4245;42.120;24.732;2022-07-09T02:57:09;98942.38;;;20.63;100.00
8416;BME280;4245;42.120;24.732;2022-07-09T02:59:37;98942.03;;;20.66;100.00
8416;BME280;4245;42.120;24.732;2022-07-09T03:02:04;98937.47;;;20.67;100.00
8416;BME280;4245;42.120;24.732;2022-07-09T03:04:33;98941.00;;;20.67;100.00
8416;BME280;4245;42.120;24.732;2022-07-09T03:06:59;98939.34;;;20.66;100.00
8416;BME280;4245;42.120;24.732;2022-07-09T03:09:26;98934.09;;;20.65;100.00
8416;BME280;4245;42.120;24.732;2022-07-09T03:11:54;98922.34;;;20.58;100.00
8416;BME280;4245;42.120;24.732;2022-07-09T03:14:21;98935.41;;;20.69;100.00
8416;BME280;4245;42.120;24.732;2022-07-09T03:16:48;98931.84;;;20.76;100.00
8416;BME280;4245;42.120;24.732;2022-07-09T03:19:15;98936.69;;;20.81;100.00
8416;BME280;4245;42.120;24.732;2022-07-09T03:21:43;98929.84;;;20.70;100.00
8416;BME280;4245;42.120;24.732;2022-07-09T03:24:10;98923.59;;;20.70;100.00
8416;BME280;4245;42.120;24.732;2022-07-09T03:26:38;98932.78;;;20.83;100.00
8416;BME280;4245;42.120;24.732;2022-07-09T03:29:04;98927.75;;;20.80;100.00
8416;BME280;4245;42.120;24.732;2022-07-09T03:31:32;98929.13;;;20.76;100.00
8416;BME280;4245;42.120;24.732;2022-07-09T03:34:00;98933.78;;;20.82;100.00
8416;BME280;4245;42.120;24.732;2022-07-09T03:36:27;98934.56;;;21.14;100.00
8416;BME280;4245;42.120;24.732;2022-07-09T03:38:55;98924.06;;;21.19;100.00
8416;BME280;4245;42.120;24.732;2022-07-09T03:41:22;98940.19;;;21.42;100.00
8416;BME280;4245;42.120;24.732;2022-07-09T03:43:49;98931.81;;;21.51;100.00
8416;BME280;4245;42.120;24.732;2022-07-09T03:46:16;98938.91;;;21.67;100.00
8416;BME280;4245;42.120;24.732;2022-07-09T03:48:42;98943.03;;;22.07;100.00
8416;BME280;4245;42.120;24.732;2022-07-09T03:51:09;98940.81;;;22.32;100.00
8416;BME280;4245;42.120;24.732;2022-07-09T03:53:36;98945.75;;;22.43;100.00
8416;BME280;4245;42.120;24.732;2022-07-09T03:56:06;98941.66;;;22.68;100.00
8416;BME280;4245;42.120;24.732;2022-07-09T03:58:33;98948.94;;;22.68;100.00
8416;BME280;4245;42.120;24.732;2022-07-09T04:01:01;98952.88;;;22.65;100.00
8416;BME280;4245;42.120;24.732;2022-07-09T04:03:28;98951.69;;;22.53;100.00
8416;BME280;4245;42.120;24.732;2022-07-09T04:05:55;98960.56;;;22.47;100.00
8416;BME280;4245;42.120;24.732;2022-07-09T04:08:22;98955.38;;;22.45;100.00
8416;BME280;4245;42.120;24.732;2022-07-09T04:10:48;98953.41;;;22.75;100.00
8416;BME280;4245;42.120;24.732;2022-07-09T04:13:17;98954.66;;;22.94;100.00
8416;BME280;4245;42.120;24.732;2022-07-09T04:15:44;98956.13;;;22.96;100.00
8416;BME280;4245;42.120;24.732;2022-07-09T04:18:12;98957.28;;;23.09;100.00
8416;BME280;4245;42.120;24.732;2022-07-09T04:20:39;98957.06;;;23.10;100.00
8416;BME280;4245;42.120;24.732;2022-07-09T04:23:06;98965.94;;;23.25;100.00
8416;BME280;4245;42.120;24.732;2022-07-09T04:25:33;98960.16;;;23.28;100.00
8416;BME280;4245;42.120;24.732;2022-07-09T04:28:00;98959.31;;;23.28;100.00
8416;BME280;4245;42.120;24.732;2022-07-09T04:30:29;98965.31;;;23.45;100.00
8416;BME280;4245;42.120;24.732;2022-07-09T04:32:55;98963.28;;;23.53;100.00
8416;BME280;4245;42.120;24.732;2022-07-09T04:35:22;98966.19;;;23.30;100.00
8416;BME280;4245;42.120;24.732;2022-07-09T04:37:49;98967.56;;;23.20;100.00
8416;BME280;4245;42.120;24.732;2022-07-09T04:40:16;98963.25;;;23.25;100.00
8416;BME280;4245;42.120;24.732;2022-07-09T04:42:43;98971.22;;;23.33;100.00
8416;BME280;4245;42.120;24.732;2022-07-09T04:45:10;98960.53;;;23.25;100.00
8416;BME280;4245;42.120;24.732;2022-07-09T04:47:39;98962.88;;;23.28;100.00
8416;BME280;4245;42.120;24.732;2022-07-09T04:50:06;98967.81;;;23.25;100.00
8416;BME280;4245;42.120;24.732;2022-07-09T04:52:33;98965.06;;;23.18;100.00
8416;BME280;4245;42.120;24.732;2022-07-09T04:55:00;98971.63;;;23.30;100.00
8416;BME280;4245;42.120;24.732;2022-07-09T04:57:27;98966.38;;;23.29;100.00
8416;BME280;4245;42.120;24.732;2022-07-09T04:59:57;98960.34;;;23.27;100.00
8416;BME280;4245;42.120;24.732;2022-07-09T05:02:24;98960.44;;;23.40;100.00
8416;BME280;4245;42.120;24.732;2022-07-09T05:04:52;98964.94;;;23.48;100.00
8416;BME280;4245;42.120;24.732;2022-07-09T05:07:19;98960.25;;;23.42;100.00
8416;BME280;4245;42.120;24.732;2022-07-09T05:09:46;98958.09;;;23.58;100.00
8416;BME280;4245;42.120;24.732;2022-07-09T05:12:13;98963.16;;;23.40;100.00
8416;BME280;4245;42.120;24.732;2022-07-09T05:14:40;98968.00;;;23.45;100.00
8416;BME280;4245;42.120;24.732;2022-07-09T05:17:07;98965.56;;;23.50;100.00
8416;BME280;4245;42.120;24.732;2022-07-09T05:19:34;98969.16;;;23.35;100.00
8416;BME280;4245;42.120;24.732;2022-07-09T05:22:03;98968.66;;;23.47;100.00
8416;BME280;4245;42.120;24.732;2022-07-09T05:24:30;98972.06;;;23.55;100.00
8416;BME280;4245;42.120;24.732;2022-07-09T05:26:57;98970.94;;;23.71;100.00
8416;BME280;4245;42.120;24.732;2022-07-09T05:29:23;98972.72;;;23.57;100.00
8416;BME280;4245;42.120;24.732;2022-07-09T05:31:52;98976.22;;;23.58;100.00
8416;BME280;4245;42.120;24.732;2022-07-09T05:34:18;98971.22;;;23.55;100.00
8416;BME280;4245;42.120;24.732;2022-07-09T05:36:45;98973.50;;;23.51;100.00
8416;BME280;4245;42.120;24.732;2022-07-09T05:39:13;98969.66;;;23.67;100.00
8416;BME280;4245;42.120;24.732;2022-07-09T05:41:41;98982.03;;;23.82;100.00
8416;BME280;4245;42.120;24.732;2022-07-09T05:44:07;98971.59;;;23.79;100.00
8416;BME280;4245;42.120;24.732;2022-07-09T05:46:34;98969.38;;;23.90;100.00
8416;BME280;4245;42.120;24.732;2022-07-09T05:49:01;98974.00;;;23.68;100.00
8416;BME280;4245;42.120;24.732;2022-07-09T05:51:28;98975.22;;;23.59;100.00
8416;BME280;4245;42.120;24.732;2022-07-09T05:53:55;98975.19;;;23.52;100.00
8416;BME280;4245;42.120;24.732;2022-07-09T05:56:23;98973.94;;;23.33;100.00
8416;BME280;4245;42.120;24.732;2022-07-09T05:58:50;98978.03;;;23.23;100.00
8416;BME280;4245;42.120;24.732;2022-07-09T06:01:18;98977.94;;;23.37;100.00
8416;BME280;4245;42.120;24.732;2022-07-09T06:03:44;98978.78;;;23.38;100.00
8416;BME280;4245;42.120;24.732;2022-07-09T06:06:12;98976.63;;;23.06;100.00
8416;BME280;4245;42.120;24.732;2022-07-09T06:08:39;98970.34;;;23.05;100.00
8416;BME280;4245;42.120;24.732;2022-07-09T06:11:06;98980.50;;;22.96;100.00
8416;BME280;4245;42.120;24.732;2022-07-09T06:13:34;98976.50;;;23.14;100.00
8416;BME280;4245;42.120;24.732;2022-07-09T06:16:01;98973.38;;;23.17;100.00
8416;BME280;4245;42.120;24.732;2022-07-09T06:18:28;98985.31;;;23.01;100.00
8416;BME280;4245;42.120;24.732;2022-07-09T06:20:55;98978.34;;;22.71;100.00
8416;BME280;4245;42.120;24.732;2022-07-09T06:23:22;98966.16;;;22.81;100.00
8416;BME280;4245;42.120;24.732;2022-07-09T06:25:49;98973.88;;;22.99;100.00
8416;BME280;4245;42.120;24.732;2022-07-09T06:28:16;98960.69;;;23.17;100.00
8416;BME280;4245;42.120;24.732;2022-07-09T06:30:44;98967.63;;;23.26;100.00
8416;BME280;4245;42.120;24.732;2022-07-09T06:33:11;98960.84;;;23.37;100.00
8416;BME280;4245;42.120;24.732;2022-07-09T06:35:39;98953.59;;;23.44;100.00
8416;BME280;4245;42.120;24.732;2022-07-09T06:38:05;98956.28;;;23.44;100.00
8416;BME280;4245;42.120;24.732;2022-07-09T06:40:32;98955.38;;;23.58;100.00
8416;BME280;4245;42.120;24.732;2022-07-09T06:42:59;98949.41;;;23.69;100.00
8416;BME280;4245;42.120;24.732;2022-07-09T06:45:39;98954.34;;;23.94;100.00
8416;BME280;4245;42.120;24.732;2022-07-09T06:48:07;98944.56;;;23.99;100.00
8416;BME280;4245;42.120;24.732;2022-07-09T06:50:34;98956.69;;;24.03;100.00
8416;BME280;4245;42.120;24.732;2022-07-09T06:53:01;98960.22;;;23.97;100.00
8416;BME280;4245;42.120;24.732;2022-07-09T06:55:27;98957.13;;;23.72;100.00
8416;BME280;4245;42.120;24.732;2022-07-09T06:57:54;98949.53;;;23.55;100.00
8416;BME280;4245;42.120;24.732;2022-07-09T07:00:22;98939.13;;;23.58;100.00
8416;BME280;4245;42.120;24.732;2022-07-09T07:02:50;98948.84;;;23.46;100.00
8416;BME280;4245;42.120;24.732;2022-07-09T07:05:18;98940.59;;;23.33;100.00
8416;BME280;4245;42.120;24.732;2022-07-09T07:07:45;98936.81;;;23.34;100.00
8416;BME280;4245;42.120;24.732;2022-07-09T07:10:12;98941.28;;;23.42;100.00
8416;BME280;4245;42.120;24.732;2022-07-09T07:12:39;98942.91;;;23.64;100.00
8416;BME280;4245;42.120;24.732;2022-07-09T07:15:06;98935.09;;;23.82;100.00
8416;BME280;4245;42.120;24.732;2022-07-09T07:17:33;98939.47;;;23.83;100.00
8416;BME280;4245;42.120;24.732;2022-07-09T07:20:00;98945.84;;;24.03;100.00
8416;BME280;4245;42.120;24.732;2022-07-09T07:22:29;98941.53;;;24.15;100.00
8416;BME280;4245;42.120;24.732;2022-07-09T07:24:55;98951.22;;;23.90;100.00
8416;BME280;4245;42.120;24.732;2022-07-09T07:27:22;98949.72;;;23.81;100.00
8416;BME280;4245;42.120;24.732;2022-07-09T07:29:49;98947.22;;;23.86;100.00
8416;BME280;4245;42.120;24.732;2022-07-09T07:32:16;98964.03;;;24.09;100.00
8416;BME280;4245;42.120;24.732;2022-07-09T07:34:43;98955.19;;;23.94;100.00
8416;BME280;4245;42.120;24.732;2022-07-09T07:37:09;98962.31;;;24.02;100.00
8416;BME280;4245;42.120;24.732;2022-07-09T07:39:38;98954.06;;;23.82;100.00
8416;BME280;4245;42.120;24.732;2022-07-09T07:42:05;98953.50;;;23.93;100.00
8416;BME280;4245;42.120;24.732;2022-07-09T07:44:32;98958.94;;;23.93;100.00
8416;BME280;4245;42.120;24.732;2022-07-09T07:46:59;98962.06;;;24.24;100.00
8416;BME280;4245;42.120;24.732;2022-07-09T07:49:26;98953.69;;;24.26;99.92
8416;BME280;4245;42.120;24.732;2022-07-09T07:51:53;98953.16;;;24.44;98.95
8416;BME280;4245;42.120;24.732;2022-07-09T07:54:20;98952.56;;;24.61;97.77
8416;BME280;4245;42.120;24.732;2022-07-09T07:56:48;98952.38;;;24.69;95.81
8416;BME280;4245;42.120;24.732;2022-07-09T07:59:15;98958.25;;;24.73;96.54
8416;BME280;4245;42.120;24.732;2022-07-09T08:01:42;98956.00;;;24.96;94.49
8416;BME280;4245;42.120;24.732;2022-07-09T08:04:09;98953.72;;;25.00;94.73
8416;BME280;4245;42.120;24.732;2022-07-09T08:06:36;98950.56;;;25.29;93.16
8416;BME280;4245;42.120;24.732;2022-07-09T08:09:03;98955.16;;;25.09;92.20
8416;BME280;4245;42.120;24.732;2022-07-09T08:11:30;98952.22;;;25.37;92.25
8416;BME280;4245;42.120;24.732;2022-07-09T08:13:58;98958.72;;;25.09;91.44
8416;BME280;4245;42.120;24.732;2022-07-09T08:16:25;98941.78;;;25.14;92.36
8416;BME280;4245;42.120;24.732;2022-07-09T08:18:52;98963.94;;;25.18;91.33
8416;BME280;4245;42.120;24.732;2022-07-09T08:21:19;98945.16;;;25.29;90.15
8416;BME280;4245;42.120;24.732;2022-07-09T08:23:46;98961.66;;;25.41;88.24
8416;BME280;4245;42.120;24.732;2022-07-09T08:26:20;98952.03;;;25.19;89.92
8416;BME280;4245;42.120;24.732;2022-07-09T08:28:47;98953.28;;;25.03;89.56
8416;BME280;4245;42.120;24.732;2022-07-09T08:31:15;98944.31;;;25.02;90.88
8416;BME280;4245;42.120;24.732;2022-07-09T08:33:42;98946.59;;;25.19;89.95
8416;BME280;4245;42.120;24.732;2022-07-09T08:36:09;98947.44;;;25.26;89.19
8416;BME280;4245;42.120;24.732;2022-07-09T08:38:37;98948.06;;;25.41;89.49
8416;BME280;4245;42.120;24.732;2022-07-09T08:41:04;98952.66;;;25.01;90.54
8416;BME280;4245;42.120;24.732;2022-07-09T08:43:32;98953.72;;;25.06;90.79
8416;BME280;4245;42.120;24.732;2022-07-09T08:45:59;98951.84;;;25.07;91.11
8416;BME280;4245;42.120;24.732;2022-07-09T08:48:28;98958.50;;;25.18;92.17
8416;BME280;4245;42.120;24.732;2022-07-09T08:50:55;98943.06;;;25.31;91.39
8416;BME280;4245;42.120;24.732;2022-07-09T08:53:24;98937.41;;;25.26;91.42
8416;BME280;4245;42.120;24.732;2022-07-09T08:55:53;98940.13;;;25.39;91.77
8416;BME280;4245;42.120;24.732;2022-07-09T08:58:21;98942.59;;;25.47;89.87
8416;BME280;4245;42.120;24.732;2022-07-09T09:00:48;98938.88;;;25.55;89.75
8416;BME280;4245;42.120;24.732;2022-07-09T09:03:16;98937.63;;;25.31;90.29
8416;BME280;4245;42.120;24.732;2022-07-09T09:05:45;98938.03;;;25.41;90.30
8416;BME280;4245;42.120;24.732;2022-07-09T09:08:19;98942.59;;;25.47;88.56
8416;BME280;4245;42.120;24.732;2022-07-09T09:10:47;98939.47;;;25.44;89.55
8416;BME280;4245;42.120;24.732;2022-07-09T09:13:15;98934.69;;;25.59;88.84
8416;BME280;4245;42.120;24.732;2022-07-09T09:15:42;98931.13;;;25.45;88.16
8416;BME280;4245;42.120;24.732;2022-07-09T09:18:09;98940.56;;;25.56;88.18
8416;BME280;4245;42.120;24.732;2022-07-09T09:20:37;98939.91;;;25.54;87.94
8416;BME280;4245;42.120;24.732;2022-07-09T09:23:06;98939.72;;;25.56;86.43
8416;BME280;4245;42.120;24.732;2022-07-09T09:25:36;98948.25;;;25.72;85.65
8416;BME280;4245;42.120;24.732;2022-07-09T09:28:03;98949.94;;;25.53;85.79
8416;BME280;4245;42.120;24.732;2022-07-09T09:30:30;98942.84;;;25.59;87.04
8416;BME280;4245;42.120;24.732;2022-07-09T09:32:58;98950.97;;;25.72;85.95
8416;BME280;4245;42.120;24.732;2022-07-09T09:35:25;98954.97;;;25.70;86.62
8416;BME280;4245;42.120;24.732;2022-07-09T09:37:53;98951.00;;;25.59;88.19
8416;BME280;4245;42.120;24.732;2022-07-09T09:40:21;98952.66;;;25.53;88.44
8416;BME280;4245;42.120;24.732;2022-07-09T09:42:49;98945.31;;;25.47;90.10
8416;BME280;4245;42.120;24.732;2022-07-09T09:45:16;98946.41;;;25.60;86.96
8416;BME280;4245;42.120;24.732;2022-07-09T09:47:45;98947.44;;;25.59;87.90
8416;BME280;4245;42.120;24.732;2022-07-09T09:50:16;98949.53;;;25.57;87.28
8416;BME280;4245;42.120;24.732;2022-07-09T09:52:45;98947.63;;;25.37;87.55
8416;BME280;4245;42.120;24.732;2022-07-09T09:55:13;98949.75;;;25.55;86.27
8416;BME280;4245;42.120;24.732;2022-07-09T09:57:41;98954.13;;;25.63;86.43
8416;BME280;4245;42.120;24.732;2022-07-09T10:00:09;98948.88;;;25.68;86.13
8416;BME280;4245;42.120;24.732;2022-07-09T10:02:38;98944.28;;;25.62;85.96
8416;BME280;4245;42.120;24.732;2022-07-09T10:05:05;98943.59;;;25.86;85.17
8416;BME280;4245;42.120;24.732;2022-07-09T10:07:32;98953.41;;;26.07;83.79
8416;BME280;4245;42.120;24.732;2022-07-09T10:09:59;98956.50;;;26.10;82.54
8416;BME280;4245;42.120;24.732;2022-07-09T10:12:27;98955.72;;;26.03;83.34
8416;BME280;4245;42.120;24.732;2022-07-09T10:14:56;98943.72;;;26.17;81.33
8416;BME280;4245;42.120;24.732;2022-07-09T10:17:24;98953.56;;;26.25;83.12
8416;BME280;4245;42.120;24.732;2022-07-09T10:19:53;98937.19;;;26.38;81.50
8416;BME280;4245;42.120;24.732;2022-07-09T10:22:21;98941.50;;;26.52;79.89
8416;BME280;4245;42.120;24.732;2022-07-09T10:24:50;98932.44;;;26.58;80.57
8416;BME280;4245;42.120;24.732;2022-07-09T10:27:18;98939.38;;;26.54;78.57
8416;BME280;4245;42.120;24.732;2022-07-09T10:29:54;98939.38;;;26.54;77.54
8416;BME280;4245;42.120;24.732;2022-07-09T10:32:26;98935.13;;;26.65;77.86
8416;BME280;4245;42.120;24.732;2022-07-09T10:34:57;98933.44;;;26.70;77.22
8416;BME280;4245;42.120;24.732;2022-07-09T10:37:35;98930.69;;;26.70;76.69
8416;BME280;4245;42.120;24.732;2022-07-09T10:40:12;98937.09;;;26.51;75.67
8416;BME280;4245;42.120;24.732;2022-07-09T10:42:41;98932.34;;;26.40;77.47
8416;BME280;4245;42.120;24.732;2022-07-09T10:45:21;98934.97;;;26.53;77.48
8416;BME280;4245;42.120;24.732;2022-07-09T10:47:57;98931.59;;;26.58;76.98
8416;BME280;4245;42.120;24.732;2022-07-09T10:50:25;98918.03;;;26.51;76.95
8416;BME280;4245;42.120;24.732;2022-07-09T10:52:53;98923.59;;;26.63;79.05
8416;BME280;4245;42.120;24.732;2022-07-09T10:55:21;98926.09;;;26.71;79.65
8416;BME280;4245;42.120;24.732;2022-07-09T10:57:48;98925.56;;;26.56;79.10
8416;BME280;4245;42.120;24.732;2022-07-09T11:00:16;98934.75;;;26.61;76.61
8416;BME280;4245;42.120;24.732;2022-07-09T11:03:03;98928.19;;;26.31;78.74
8416;BME280;4245;42.120;24.732;2022-07-09T11:05:31;98926.28;;;26.38;78.68
8416;BME280;4245;42.120;24.732;2022-07-09T11:08:01;98916.06;;;26.33;79.50
8416;BME280;4245;42.120;24.732;2022-07-09T11:10:29;98923.13;;;26.41;79.54
8416;BME280;4245;42.120;24.732;2022-07-09T11:12:57;98914.09;;;26.41;80.04
8416;BME280;4245;42.120;24.732;2022-07-09T11:15:26;98917.22;;;26.44;79.82
8416;BME280;4245;42.120;24.732;2022-07-09T11:17:55;98920.50;;;26.59;79.21
8416;BME280;4245;42.120;24.732;2022-07-09T11:20:23;98917.41;;;26.49;80.63
8416;BME280;4245;42.120;24.732;2022-07-09T11:22:50;98918.03;;;26.51;79.36
8416;BME280;4245;42.120;24.732;2022-07-09T11:25:18;98919.00;;;26.25;79.48
8416;BME280;4245;42.120;24.732;2022-07-09T11:27:45;98911.91;;;26.18;82.11
8416;BME280;4245;42.120;24.732;2022-07-09T11:30:13;98912.53;;;26.13;80.58
8416;BME280;4245;42.120;24.732;2022-07-09T11:32:40;98920.28;;;26.10;81.34
8416;BME280;4245;42.120;24.732;2022-07-09T11:35:08;98914.25;;;26.01;82.09
8416;BME280;4245;42.120;24.732;2022-07-09T11:37:37;98905.06;;;25.95;82.16
8416;BME280;4245;42.120;24.732;2022-07-09T11:40:05;98913.22;;;26.02;82.89
8416;BME280;4245;42.120;24.732;2022-07-09T11:42:40;98904.22;;;26.02;84.05
8416;BME280;4245;42.120;24.732;2022-07-09T11:45:09;98912.72;;;26.25;83.03
8416;BME280;4245;42.120;24.732;2022-07-09T11:47:38;98918.88;;;26.52;79.66
8416;BME280;4245;42.120;24.732;2022-07-09T11:50:06;98915.56;;;26.43;79.70
8416;BME280;4245;42.120;24.732;2022-07-09T11:52:33;98913.28;;;26.40;80.59
8416;BME280;4245;42.120;24.732;2022-07-09T11:55:05;98913.16;;;26.22;82.80
8416;BME280;4245;42.120;24.732;2022-07-09T11:57:33;98913.34;;;26.20;83.22
8416;BME280;4245;42.120;24.732;2022-07-09T12:00:02;98904.50;;;26.38;83.26
8416;BME280;4245;42.120;24.732;2022-07-09T12:02:31;98908.94;;;26.32;82.27
8416;BME280;4245;42.120;24.732;2022-07-09T12:05:00;98908.84;;;26.46;81.56
8416;BME280;4245;42.120;24.732;2022-07-09T12:07:29;98911.72;;;26.57;81.89
8416;BME280;4245;42.120;24.732;2022-07-09T12:09:59;98912.66;;;26.38;83.15
8416;BME280;4245;42.120;24.732;2022-07-09T12:12:28;98912.88;;;26.36;81.88
8416;BME280;4245;42.120;24.732;2022-07-09T12:14:55;98904.97;;;26.28;81.29
8416;BME280;4245;42.120;24.732;2022-07-09T12:17:26;98909.41;;;26.23;81.18
8416;BME280;4245;42.120;24.732;2022-07-09T12:19:53;98910.47;;;26.09;80.50
8416;BME280;4245;42.120;24.732;2022-07-09T12:22:21;98911.34;;;25.96;81.63
8416;BME280;4245;42.120;24.732;2022-07-09T12:24:49;98908.22;;;25.92;82.91
8416;BME280;4245;42.120;24.732;2022-07-09T12:27:17;98909.06;;;25.86;84.22
8416;BME280;4245;42.120;24.732;2022-07-09T12:29:45;98899.31;;;25.59;87.50
8416;BME280;4245;42.120;24.732;2022-07-09T12:32:12;98898.06;;;25.48;90.45
8416;BME280;4245;42.120;24.732;2022-07-09T12:34:39;98902.91;;;25.27;92.30
8416;BME280;4245;42.120;24.732;2022-07-09T12:37:07;98904.97;;;25.18;93.00
8416;BME280;4245;42.120;24.732;2022-07-09T12:39:34;98905.00;;;25.31;89.69
8416;BME280;4245;42.120;24.732;2022-07-09T12:42:01;98903.69;;;25.47;88.38
8416;BME280;4245;42.120;24.732;2022-07-09T12:44:28;98915.84;;;25.44;88.77
8416;BME280;4245;42.120;24.732;2022-07-09T12:46:56;98915.88;;;25.25;88.15
8416;BME280;4245;42.120;24.732;2022-07-09T12:49:23;98908.16;;;25.02;90.46
8416;BME280;4245;42.120;24.732;2022-07-09T12:51:50;98914.59;;;24.94;92.17
8416;BME280;4245;42.120;24.732;2022-07-09T12:54:17;98898.53;;;25.06;90.94
8416;BME280;4245;42.120;24.732;2022-07-09T12:56:44;98895.78;;;25.13;89.94
8416;BME280;4245;42.120;24.732;2022-07-09T12:59:15;98891.81;;;25.08;87.86
8416;BME280;4245;42.120;24.732;2022-07-09T13:01:42;98898.75;;;24.98;86.96
8416;BME280;4245;42.120;24.732;2022-07-09T13:04:10;98878.81;;;24.71;87.75
8416;BME280;4245;42.120;24.732;2022-07-09T13:06:37;98880.50;;;24.79;86.44